createdAt,value
2022-10-11T00:02:06.919Z,6.85
2022-10-11T00:04:33.794Z,5.80
2022-10-11T00:07:00.563Z,9.23
2022-10-11T00:09:27.482Z,8.05
2022-10-11T00:11:57.550Z,7.15
2022-10-11T00:14:28.134Z,5.85
2022-10-11T00:16:54.968Z,5.07
2022-10-11T00:19:22.498Z,3.17
2022-10-11T00:21:49.253Z,9.05
2022-10-11T00:24:16.776Z,7.80
2022-10-11T00:26:46.761Z,8.55
2022-10-11T00:29:14.423Z,12.70
2022-10-11T00:31:41.396Z,7.72
2022-10-11T00:34:10.100Z,9.07
2022-10-11T00:36:36.829Z,6.35
2022-10-11T00:39:04.956Z,4.93
2022-10-11T00:41:31.688Z,5.80
2022-10-11T00:44:23.883Z,9.60
2022-10-11T00:47:09.269Z,9.70
2022-10-11T00:49:59.537Z,9.32
2022-10-11T00:52:35.595Z,7.95
2022-10-11T00:55:12.963Z,7.88
2022-10-11T00:57:44.367Z,9.35
2022-10-11T01:00:14.204Z,15.40
2022-10-11T01:02:42.015Z,5.85
2022-10-11T01:05:28.517Z,13.15
2022-10-11T01:07:56.234Z,8.50
2022-10-11T01:10:23.071Z,9.25
2022-10-11T01:13:27.757Z,10.63
2022-10-11T01:16:26.596Z,6.93
2022-10-11T01:19:20.021Z,15.80
2022-10-11T01:22:17.456Z,12.05
2022-10-11T01:25:39.067Z,15.63
2022-10-11T01:28:52.549Z,10.57
2022-10-11T01:31:49.440Z,11.55
2022-10-11T01:34:38.513Z,8.45
2022-10-11T01:37:16.824Z,17.00
2022-10-11T01:39:50.655Z,8.13
2022-10-11T01:42:18.658Z,8.10
2022-10-11T01:44:49.016Z,8.50
2022-10-11T01:47:24.059Z,13.63
2022-10-11T01:49:59.839Z,18.63
2022-10-11T01:52:34.487Z,17.25
2022-10-11T01:55:34.610Z,12.85
2022-10-11T01:58:24.753Z,10.20
2022-10-11T02:01:43.851Z,15.05
2022-10-11T02:04:32.548Z,14.90
2022-10-11T02:07:21.658Z,16.80
2022-10-11T02:10:10.823Z,12.05
2022-10-11T02:12:56.247Z,14.75
2022-10-11T02:15:30.013Z,9.65
2022-10-11T02:18:11.649Z,13.10
2022-10-11T02:20:45.978Z,14.75
2022-10-11T02:23:32.854Z,21.95
2022-10-11T02:29:34.487Z,14.98
2022-10-11T02:32:01.980Z,12.75
2022-10-11T02:34:56.318Z,13.70
2022-10-11T02:37:42.948Z,14.02
2022-10-11T02:40:36.328Z,13.73
2022-10-11T02:43:13.432Z,13.38
2022-10-11T02:45:45.127Z,10.38
2022-10-11T02:48:12.887Z,8.20
2022-10-11T02:50:40.441Z,14.07
2022-10-11T02:53:07.844Z,11.45
2022-10-11T02:55:35.362Z,15.48
2022-10-11T02:58:02.340Z,11.43
2022-10-11T03:00:29.305Z,14.70
2022-10-11T03:02:56.068Z,11.52
2022-10-11T03:05:22.871Z,13.18
2022-10-11T03:07:49.628Z,12.85
2022-10-11T03:10:16.470Z,12.77
2022-10-11T03:12:43.320Z,10.93
2022-10-11T03:15:10.590Z,12.50
2022-10-11T03:17:37.622Z,12.02
2022-10-11T03:20:06.427Z,17.80
2022-10-11T03:22:33.158Z,18.48
2022-10-11T03:25:04.121Z,13.80
2022-10-11T03:27:32.960Z,16.60
2022-10-11T03:30:00.225Z,12.85
2022-10-11T03:32:27.292Z,16.50
2022-10-11T03:34:54.023Z,12.93
2022-10-11T03:37:20.754Z,10.85
2022-10-11T03:39:47.530Z,9.98
2022-10-11T03:42:14.588Z,15.50
2022-10-11T03:44:42.117Z,14.02
2022-10-11T03:47:09.822Z,14.23
2022-10-11T03:49:40.008Z,17.65
2022-10-11T03:52:09.694Z,16.13
2022-10-11T03:54:36.465Z,15.75
2022-10-11T03:57:03.442Z,13.00
2022-10-11T03:59:30.228Z,9.57
2022-10-11T04:01:57.059Z,13.25
2022-10-11T04:04:23.918Z,10.63
2022-10-11T04:06:50.688Z,14.73
2022-10-11T04:09:17.431Z,12.27
2022-10-11T04:11:44.174Z,11.63
2022-10-11T04:14:10.900Z,16.80
2022-10-11T04:16:38.738Z,12.57
2022-10-11T04:19:05.985Z,12.73
2022-10-11T04:21:32.783Z,11.43
2022-10-11T04:23:59.516Z,12.27
2022-10-11T04:26:26.477Z,10.95
2022-10-11T04:28:53.348Z,15.80
2022-10-11T04:31:20.146Z,15.40
2022-10-11T04:33:46.872Z,14.13
2022-10-11T04:36:13.658Z,13.30
2022-10-11T04:38:40.403Z,12.25
2022-10-11T04:41:13.331Z,13.57
2022-10-11T04:43:40.471Z,11.43
2022-10-11T04:46:08.484Z,20.10
2022-10-11T04:48:36.210Z,9.57
2022-10-11T04:51:02.947Z,14.45
2022-10-11T04:53:30.042Z,13.82
2022-10-11T04:56:08.311Z,10.50
2022-10-11T04:58:35.729Z,11.40
2022-10-11T05:01:02.560Z,11.48
2022-10-11T05:03:29.742Z,15.68
2022-10-11T05:05:56.539Z,15.55
2022-10-11T05:08:23.530Z,17.95
2022-10-11T05:11:04.797Z,10.65
2022-10-11T05:15:59.334Z,14.20
2022-10-11T05:18:26.330Z,15.43
2022-10-11T05:21:24.514Z,12.27
2022-10-11T05:23:52.932Z,13.20
2022-10-11T05:26:20.688Z,19.73
2022-10-11T05:28:48.009Z,10.85
2022-10-11T05:31:15.694Z,12.50
2022-10-11T05:33:43.294Z,16.95
2022-10-11T05:36:10.965Z,14.73
2022-10-11T05:38:38.893Z,14.63
2022-10-11T05:41:09.154Z,17.77
2022-10-11T05:43:36.200Z,14.80
2022-10-11T05:46:03.350Z,10.27
2022-10-11T05:48:30.460Z,16.52
2022-10-11T05:51:03.319Z,12.65
2022-10-11T05:53:30.589Z,17.35
2022-10-11T05:55:58.225Z,17.35
2022-10-11T05:58:25.659Z,13.82
2022-10-11T06:00:52.808Z,14.95
2022-10-11T06:03:20.965Z,18.42
2022-10-11T06:05:47.707Z,14.60
2022-10-11T06:08:15.751Z,9.80
2022-10-11T06:10:42.493Z,12.55
2022-10-11T06:13:10.181Z,15.48
2022-10-11T06:15:40.147Z,25.60
2022-10-11T06:18:07.079Z,18.20
2022-10-11T06:20:33.943Z,16.45
2022-10-11T06:23:01.124Z,16.92
2022-10-11T06:25:27.854Z,18.90
2022-10-11T06:27:54.659Z,41.85
2022-10-11T06:30:21.522Z,25.98
2022-10-11T06:32:48.264Z,13.13
2022-10-11T06:35:15.119Z,13.05
2022-10-11T06:37:41.887Z,10.60
2022-10-11T06:40:09.236Z,17.48
2022-10-11T06:42:35.971Z,11.23
2022-10-11T06:45:02.784Z,10.95
2022-10-11T06:47:29.533Z,15.77
2022-10-11T06:49:56.330Z,11.85
2022-10-11T06:52:23.092Z,11.20
2022-10-11T06:54:49.859Z,13.10
2022-10-11T06:57:16.594Z,10.85
2022-10-11T06:59:43.326Z,11.00
2022-10-11T07:02:10.496Z,9.77
2022-10-11T07:04:37.228Z,10.23
2022-10-11T07:07:03.959Z,14.05
2022-10-11T07:09:30.877Z,15.05
2022-10-11T07:11:57.615Z,11.98
2022-10-11T07:14:24.342Z,14.77
2022-10-11T07:16:51.084Z,14.13
2022-10-11T07:19:17.839Z,10.48
2022-10-11T07:21:44.579Z,13.85
2022-10-11T07:24:11.318Z,7.60
2022-10-11T07:26:39.328Z,11.63
2022-10-11T07:29:08.427Z,15.73
2022-10-11T07:31:38.507Z,13.80
2022-10-11T07:34:05.634Z,12.98
2022-10-11T07:36:32.783Z,15.77
2022-10-11T07:38:59.512Z,18.45
2022-10-11T07:41:26.423Z,18.02
2022-10-11T07:43:54.467Z,15.57
2022-10-11T07:46:21.248Z,14.68
2022-10-11T07:48:49.959Z,13.50
2022-10-11T07:51:22.575Z,15.93
2022-10-11T07:53:52.636Z,15.48
2022-10-11T07:56:28.530Z,10.18
2022-10-11T07:58:58.969Z,11.90
2022-10-11T08:01:27.705Z,17.27
2022-10-11T08:03:56.728Z,15.70
2022-10-11T08:06:29.130Z,15.40
2022-10-11T08:08:57.250Z,20.50
2022-10-11T08:11:34.081Z,13.95
2022-10-11T08:14:01.580Z,15.48
2022-10-11T08:16:28.581Z,17.38
2022-10-11T08:18:56.825Z,21.63
2022-10-11T08:21:24.044Z,50.10
2022-10-11T08:23:50.760Z,26.27
2022-10-11T08:26:17.599Z,62.97
2022-10-11T08:28:44.470Z,46.10
2022-10-11T08:31:15.989Z,22.38
2022-10-11T08:33:43.700Z,14.38
2022-10-11T08:36:11.421Z,17.45
2022-10-11T08:38:39.470Z,15.98
2022-10-11T08:41:47.723Z,12.68
2022-10-11T08:45:09.017Z,14.98
2022-10-11T08:47:40.918Z,11.63
2022-10-11T08:50:16.564Z,15.23
2022-10-11T08:53:15.738Z,19.80
2022-10-11T08:55:50.929Z,16.27
2022-10-11T08:58:24.554Z,14.98
2022-10-11T09:00:55.501Z,13.32
2022-10-11T09:03:42.155Z,16.08
2022-10-11T09:06:29.983Z,11.60
2022-10-11T09:09:13.662Z,14.63
2022-10-11T09:12:32.946Z,12.90
2022-10-11T09:18:22.043Z,11.35
2022-10-11T09:20:53.158Z,15.10
2022-10-11T09:23:52.475Z,18.48
2022-10-11T09:26:36.635Z,13.98
2022-10-11T09:29:45.877Z,13.73
2022-10-11T09:32:20.956Z,20.98
2022-10-11T09:34:59.590Z,15.45
2022-10-11T09:38:06.207Z,16.65
2022-10-11T09:40:54.862Z,18.20
2022-10-11T09:43:21.716Z,23.75
2022-10-11T09:45:49.765Z,15.75
2022-10-11T09:48:40.421Z,18.30
2022-10-11T09:51:16.761Z,21.77
2022-10-11T09:53:50.873Z,22.25
2022-10-11T09:56:17.732Z,18.20
2022-10-11T09:58:44.583Z,16.23
2022-10-11T10:01:22.954Z,24.95
2022-10-11T10:04:12.548Z,16.95
2022-10-11T10:06:40.720Z,17.73
2022-10-11T10:09:30.961Z,20.30
2022-10-11T10:11:58.141Z,13.90
2022-10-11T10:14:30.285Z,18.63
2022-10-11T10:17:06.001Z,17.88
2022-10-11T10:19:45.181Z,20.20
2022-10-11T10:22:27.215Z,21.05
2022-10-11T10:24:55.566Z,22.38
2022-10-11T10:27:30.598Z,22.70
2022-10-11T10:30:09.349Z,17.77
2022-10-11T10:33:04.826Z,19.75
2022-10-11T10:36:02.143Z,16.08
2022-10-11T10:38:52.149Z,19.58
2022-10-11T10:41:19.571Z,17.20
2022-10-11T10:43:56.813Z,15.70
2022-10-11T10:47:04.184Z,20.67
2022-10-11T10:49:54.448Z,17.05
2022-10-11T10:52:31.930Z,17.70
2022-10-11T10:55:20.584Z,22.33
2022-10-11T10:59:02.864Z,15.20
2022-10-11T11:01:34.107Z,24.13
2022-10-11T11:04:33.471Z,17.75
2022-10-11T11:07:22.012Z,12.88
2022-10-11T11:10:02.239Z,21.38
2022-10-11T11:13:36.679Z,14.73
2022-10-11T11:16:35.480Z,19.88
2022-10-11T11:19:48.590Z,17.63
2022-10-11T11:22:50.976Z,17.88
2022-10-11T11:25:44.650Z,16.38
2022-10-11T11:28:39.818Z,16.77
2022-10-11T11:31:36.490Z,19.25
2022-10-11T11:34:10.364Z,18.40
2022-10-11T11:36:57.769Z,21.92
2022-10-11T11:39:45.320Z,14.77
2022-10-11T11:42:23.621Z,16.27
2022-10-11T11:44:54.395Z,19.27
2022-10-11T11:47:37.111Z,15.02
2022-10-11T11:50:25.168Z,20.45
2022-10-11T11:52:58.148Z,20.63
2022-10-11T11:55:44.273Z,20.00
2022-10-11T11:58:42.115Z,20.27
2022-10-11T12:01:35.932Z,17.80
2022-10-11T12:04:11.924Z,20.38
2022-10-11T12:06:52.390Z,19.35
2022-10-11T12:09:43.053Z,17.00
2022-10-11T12:13:01.243Z,21.33
2022-10-11T12:16:14.212Z,19.95
2022-10-11T12:19:15.410Z,23.70
2022-10-11T12:22:26.806Z,27.05
2022-10-11T12:25:09.135Z,23.58
2022-10-11T12:27:46.534Z,27.35
2022-10-11T12:30:47.012Z,32.40
2022-10-11T12:33:41.862Z,18.30
2022-10-11T12:36:36.550Z,21.80
2022-10-11T12:39:18.479Z,22.20
2022-10-11T12:41:50.715Z,21.88
2022-10-11T12:44:27.449Z,23.80
2022-10-11T12:46:54.077Z,27.45
2022-10-11T12:49:45.999Z,21.15
2022-10-11T12:52:25.558Z,21.65
2022-10-11T12:55:01.183Z,16.88
2022-10-11T12:58:08.710Z,16.00
2022-10-11T13:01:03.279Z,16.45
2022-10-11T13:03:35.069Z,16.65
2022-10-11T13:06:14.572Z,13.40
2022-10-11T13:08:47.446Z,13.85
2022-10-11T13:11:32.632Z,17.85
2022-10-11T13:14:21.962Z,18.42
2022-10-11T13:17:02.156Z,14.68
2022-10-11T13:19:34.810Z,19.43
2022-10-11T13:22:13.127Z,10.25
2022-10-11T13:24:40.707Z,12.70
2022-10-11T13:27:08.036Z,20.35
2022-10-11T13:29:40.743Z,13.25
2022-10-11T13:32:26.112Z,13.93
2022-10-11T13:35:06.694Z,17.30
2022-10-11T13:37:45.354Z,14.38
2022-10-11T13:40:19.398Z,21.45
2022-10-11T13:42:48.425Z,21.67
2022-10-11T13:45:30.495Z,16.65
2022-10-11T13:47:57.528Z,16.33
2022-10-11T13:50:34.253Z,17.75
2022-10-11T13:53:09.982Z,15.20
2022-10-11T13:55:42.384Z,9.77
2022-10-11T13:58:38.488Z,17.27
2022-10-11T14:01:27.109Z,14.68
2022-10-11T14:04:01.634Z,16.33
2022-10-11T14:06:47.563Z,18.98
2022-10-11T14:09:27.470Z,15.40
2022-10-11T14:11:55.134Z,17.73
2022-10-11T14:14:33.986Z,13.40
2022-10-11T14:17:18.525Z,10.77
2022-10-11T14:19:47.920Z,14.95
2022-10-11T14:22:18.325Z,88.18
2022-10-11T14:24:48.379Z,12.40
2022-10-11T14:27:21.432Z,12.13
2022-10-11T14:30:06.084Z,14.93
2022-10-11T14:32:36.411Z,15.07
2022-10-11T14:35:04.138Z,11.05
2022-10-11T14:37:31.036Z,10.05
2022-10-11T14:39:57.772Z,12.90
2022-10-11T14:42:24.528Z,17.33
2022-10-11T14:44:51.286Z,16.63
2022-10-11T14:47:18.271Z,19.42
2022-10-11T14:49:45.006Z,13.93
2022-10-11T14:52:13.596Z,18.45
2022-10-11T14:54:40.853Z,19.70
2022-10-11T14:57:08.135Z,17.25
2022-10-11T14:59:37.650Z,17.77
2022-10-11T15:02:08.146Z,21.38
2022-10-11T15:04:34.957Z,16.45
2022-10-11T15:07:02.231Z,16.42
2022-10-11T15:09:29.441Z,14.43
2022-10-11T15:11:56.752Z,16.63
2022-10-11T15:14:25.372Z,19.02
2022-10-11T15:16:52.383Z,16.98
2022-10-11T15:19:23.813Z,20.73
2022-10-11T15:21:51.526Z,15.82
2022-10-11T15:24:21.222Z,22.15
2022-10-11T15:26:49.114Z,10.80
2022-10-11T15:29:17.871Z,15.60
2022-10-11T15:31:44.992Z,11.75
2022-10-11T15:34:11.892Z,14.50
2022-10-11T15:36:38.948Z,20.52
2022-10-11T15:39:28.566Z,11.73
2022-10-11T15:41:55.434Z,15.98
2022-10-11T15:44:22.173Z,16.17
2022-10-11T15:46:49.041Z,28.27
2022-10-11T15:49:16.858Z,18.30
2022-10-11T15:51:43.731Z,18.33
2022-10-11T15:54:10.467Z,19.33
2022-10-11T15:56:37.509Z,15.70
2022-10-11T15:59:04.264Z,15.88
2022-10-11T16:01:31.030Z,13.00
2022-10-11T16:03:57.832Z,19.98
2022-10-11T16:06:24.605Z,12.10
2022-10-11T16:08:51.391Z,15.65
2022-10-11T16:11:18.184Z,24.60
2022-10-11T16:13:45.204Z,27.63
2022-10-11T16:16:12.204Z,17.58
2022-10-11T16:18:39.239Z,16.83
2022-10-11T16:21:10.405Z,16.67
2022-10-11T16:23:38.363Z,22.40
2022-10-11T16:26:10.103Z,14.80
2022-10-11T16:28:37.870Z,15.48
2022-10-11T16:31:10.976Z,15.65
2022-10-11T16:33:45.673Z,17.10
2022-10-11T16:36:31.951Z,20.60
2022-10-11T16:39:00.602Z,12.75
2022-10-11T16:41:27.820Z,20.05
2022-10-11T16:43:55.239Z,13.60
2022-10-11T16:46:22.000Z,12.73
2022-10-11T16:48:49.632Z,15.90
2022-10-11T16:51:16.410Z,13.68
2022-10-11T16:53:43.143Z,15.13
2022-10-11T16:56:11.848Z,12.52
2022-10-11T16:58:38.738Z,15.80
2022-10-11T17:01:10.995Z,19.45
2022-10-11T17:03:38.882Z,16.98
2022-10-11T17:06:07.062Z,18.45
2022-10-11T17:08:35.126Z,17.02
2022-10-11T17:11:02.883Z,17.17
2022-10-11T17:13:29.728Z,19.27
2022-10-11T17:15:56.619Z,12.63
2022-10-11T17:18:23.648Z,12.95
2022-10-11T17:20:50.463Z,14.90
2022-10-11T17:23:17.249Z,18.80
2022-10-11T17:25:47.207Z,16.00
2022-10-11T17:28:14.155Z,14.57
2022-10-11T17:30:42.056Z,12.93
2022-10-11T17:33:09.147Z,18.38
2022-10-11T17:35:35.991Z,18.08
2022-10-11T17:38:06.136Z,14.00
2022-10-11T17:40:33.295Z,15.52
2022-10-11T17:43:00.109Z,17.08
2022-10-11T17:45:27.050Z,24.45
2022-10-11T17:47:53.776Z,18.67
2022-10-11T17:50:20.582Z,19.00
2022-10-11T17:52:47.380Z,20.10
2022-10-11T17:55:14.899Z,18.20
2022-10-11T17:57:41.669Z,21.98
2022-10-11T18:00:09.461Z,16.63
2022-10-11T18:02:36.170Z,13.57
2022-10-11T18:05:03.320Z,13.05
2022-10-11T18:07:30.282Z,17.38
2022-10-11T18:09:57.235Z,21.23
2022-10-11T18:12:24.008Z,16.38
2022-10-11T18:14:51.079Z,13.80
2022-10-11T18:17:19.080Z,14.40
2022-10-11T18:19:45.826Z,17.40
2022-10-11T18:22:12.588Z,14.90
2022-10-11T18:24:41.322Z,21.80
2022-10-11T18:27:08.116Z,15.70
2022-10-11T18:29:34.863Z,19.48
2022-10-11T18:32:01.599Z,17.75
2022-10-11T18:34:28.340Z,15.80
2022-10-11T18:36:55.245Z,20.30
2022-10-11T18:39:45.953Z,20.85
2022-10-11T18:42:18.730Z,13.95
2022-10-11T18:44:49.395Z,16.63
2022-10-11T18:47:30.779Z,15.75
2022-10-11T18:50:17.433Z,14.05
2022-10-11T18:53:27.116Z,16.10
2022-10-11T18:56:19.885Z,19.25
2022-10-11T18:59:30.324Z,21.52
2022-10-11T19:02:30.713Z,15.65
2022-10-11T19:05:30.409Z,22.07
2022-10-11T19:07:57.128Z,19.27
2022-10-11T19:10:41.241Z,13.18
2022-10-11T19:13:45.623Z,14.90
2022-10-11T19:16:29.782Z,19.13
2022-10-11T19:19:43.106Z,15.02
2022-10-11T19:22:09.822Z,16.27
2022-10-11T19:24:36.856Z,20.10
2022-10-11T19:27:03.630Z,15.73
2022-10-11T19:29:31.188Z,16.40
2022-10-11T19:32:00.723Z,16.20
2022-10-11T19:34:28.653Z,16.02
2022-10-11T19:36:56.607Z,19.83
2022-10-11T19:39:24.885Z,13.27
2022-10-11T19:41:52.280Z,15.30
2022-10-11T19:44:19.506Z,16.00
2022-10-11T19:46:53.611Z,15.07
2022-10-11T19:49:25.719Z,16.35
2022-10-11T19:51:53.715Z,17.83
2022-10-11T19:54:20.511Z,16.27
2022-10-11T19:56:47.766Z,16.63
2022-10-11T19:59:15.237Z,18.65
2022-10-11T20:01:44.666Z,20.20
2022-10-11T20:04:33.221Z,15.60
2022-10-11T20:07:01.555Z,17.20
2022-10-11T20:09:30.042Z,15.77
2022-10-11T20:11:57.572Z,19.15
2022-10-11T20:14:24.445Z,16.50
2022-10-11T20:16:51.313Z,18.27
2022-10-11T20:19:18.774Z,17.10
2022-10-11T20:21:45.635Z,22.33
2022-10-11T20:24:12.820Z,17.67
2022-10-11T20:26:39.578Z,19.42
2022-10-11T20:29:06.742Z,14.82
2022-10-11T20:31:37.989Z,16.88
2022-10-11T20:34:07.271Z,11.95
2022-10-11T20:36:36.004Z,19.75
2022-10-11T20:39:04.202Z,14.93
2022-10-11T20:41:39.531Z,18.63
2022-10-11T20:44:07.369Z,16.73
2022-10-11T20:46:37.560Z,13.55
2022-10-11T20:49:08.939Z,14.03
2022-10-11T20:51:38.233Z,16.05
2022-10-11T20:54:05.638Z,20.65
2022-10-11T20:56:33.762Z,17.35
2022-10-11T20:59:05.369Z,16.85
2022-10-11T21:01:59.651Z,40.15
2022-10-11T21:04:37.033Z,19.98
2022-10-11T21:07:35.397Z,18.35
2022-10-11T21:10:29.036Z,18.33
2022-10-11T21:13:47.930Z,14.05
2022-10-11T21:16:59.396Z,16.05
2022-10-11T21:22:06.598Z,16.48
2022-10-11T21:24:33.336Z,22.02
2022-10-11T21:27:00.739Z,22.10
2022-10-11T21:29:28.016Z,21.33
2022-10-11T21:31:54.748Z,18.55
2022-10-11T21:34:21.480Z,17.95
2022-10-11T21:36:48.210Z,17.60
2022-10-11T21:39:15.015Z,18.33
2022-10-11T21:41:42.297Z,17.02
2022-10-11T21:44:09.288Z,19.77
2022-10-11T21:47:04.813Z,14.52
2022-10-11T21:49:23.051Z,16.42
2022-10-11T21:51:49.780Z,15.65
2022-10-11T21:54:17.018Z,23.75
2022-10-11T21:56:43.745Z,23.50
2022-10-11T21:59:12.561Z,16.63
2022-10-11T22:01:40.827Z,18.83
2022-10-11T22:04:08.410Z,17.65
2022-10-11T22:06:36.534Z,17.50
2022-10-11T22:09:04.784Z,21.52
2022-10-11T22:11:31.510Z,20.20
2022-10-11T22:13:58.641Z,17.30
2022-10-11T22:16:25.367Z,18.85
2022-10-11T22:18:53.929Z,19.02
2022-10-11T22:21:23.152Z,15.88
2022-10-11T22:23:52.872Z,17.50
2022-10-11T22:26:23.828Z,15.38
2022-10-11T22:28:51.065Z,17.73
2022-10-11T22:31:20.234Z,17.45
2022-10-11T22:33:47.198Z,19.40
2022-10-11T22:36:16.723Z,17.58
2022-10-11T22:38:43.886Z,21.90
2022-10-11T22:41:11.278Z,24.75
2022-10-11T22:43:38.264Z,21.15
2022-10-11T22:46:05.948Z,19.23
2022-10-11T22:48:32.676Z,20.77
2022-10-11T22:50:59.995Z,26.63
2022-10-11T22:53:26.769Z,22.33
2022-10-11T22:55:53.713Z,24.92
2022-10-11T22:58:20.438Z,21.95
2022-10-11T23:00:47.252Z,29.02
2022-10-11T23:03:16.046Z,23.15
2022-10-11T23:05:42.854Z,26.77
2022-10-11T23:08:09.975Z,34.45
2022-10-11T23:10:40.486Z,33.70
2022-10-11T23:13:07.378Z,37.45
2022-10-11T23:15:34.120Z,40.88
2022-10-11T23:18:00.849Z,39.92
2022-10-11T23:20:27.625Z,45.30
2022-10-11T23:22:54.389Z,48.25
2022-10-11T23:25:21.123Z,50.55
2022-10-11T23:27:47.886Z,51.35
2022-10-11T23:30:14.748Z,55.60
2022-10-11T23:32:41.854Z,51.45
2022-10-11T23:35:08.981Z,62.92
2022-10-11T23:37:35.973Z,58.28
2022-10-11T23:40:03.335Z,61.67
2022-10-11T23:42:30.148Z,56.97
2022-10-11T23:44:56.895Z,64.03
2022-10-11T23:47:23.656Z,55.10
2022-10-11T23:49:51.731Z,54.22
2022-10-11T23:52:18.573Z,71.53
2022-10-11T23:54:45.357Z,56.75
2022-10-11T23:57:12.487Z,54.50
2022-10-11T23:59:39.216Z,56.97
